Time;durP1;ratioP1;P1;durP2;ratioP2;P2;SDS_P1;SDS_P2;PMS_P1;PMS_P2;Temp;Humidity;BMP_temperature;BMP_pressure;BME280_temperature;BME280_humidity;BME280_pressure;Samples;Min_cycle;Max_cycle;Signal;HPM_P1;HPM_P2
2022/08/03 00:01:15;;;;;;;;;;;22.40;65.10;;;;;;6215559;23;883;-71
2022/08/03 00:03:40;;;;;;;;;;;22.40;65.00;;;;;;6216217;23;922;-70
2022/08/03 00:06:06;;;;;;;;;;;22.40;65.10;;;;;;6216234;23;1285;-69
2022/08/03 00:08:31;;;;;;;;;;;22.40;65.10;;;;;;6215585;23;1936;-70
2022/08/03 00:10:57;;;;;;;;;;;22.40;65.10;;;;;;6215324;23;773;-70
2022/08/03 00:13:22;;;;;;;;;;;22.40;65.10;;;;;;6214288;23;792;-70
2022/08/03 00:15:47;;;;;;;;;;;22.40;65.10;;;;;;6215700;23;1227;-71
2022/08/03 00:18:13;;;;;;;;;;;22.30;65.00;;;;;;6214081;23;1104;-71
2022/08/03 00:20:38;;;;;;;;;;;22.40;65.10;;;;;;6213936;23;761;-70
2022/08/03 00:23:04;;;;;;;;;;;22.40;65.10;;;;;;6215464;23;808;-72
2022/08/03 00:25:30;;;;;;;;;;;22.40;65.10;;;;;;6215532;23;1381;-70
2022/08/03 00:27:55;;;;;;;;;;;22.40;65.20;;;;;;6214515;23;3382;-65
2022/08/03 00:30:21;;;;;;;;;;;22.30;65.10;;;;;;6213549;23;1943;-64
2022/08/03 00:32:46;;;;;;;;;;;22.40;65.20;;;;;;6216043;23;786;-65
2022/08/03 00:35:12;;;;;;;;;;;22.30;65.10;;;;;;6215867;23;776;-66
2022/08/03 00:37:37;;;;;;;;;;;22.40;65.20;;;;;;6215901;23;1241;-63
2022/08/03 00:40:03;;;;;;;;;;;22.40;65.20;;;;;;6215760;23;741;-65
2022/08/03 00:42:28;;;;;;;;;;;22.40;65.20;;;;;;6215804;23;768;-66
2022/08/03 00:44:54;;;;;;;;;;;22.40;65.20;;;;;;6215740;23;870;-66
2022/08/03 00:47:19;;;;;;;;;;;22.40;65.20;;;;;;6215802;23;1178;-67
2022/08/03 00:49:44;;;;;;;;;;;22.40;65.20;;;;;;6188804;23;1899;-69
2022/08/03 00:52:10;;;;;;;;;;;22.40;65.20;;;;;;6215413;23;758;-64
2022/08/03 00:54:38;;;;;;;;;;;22.40;65.20;;;;;;6215515;23;840;-64
2022/08/03 00:57:04;;;;;;;;;;;22.40;65.30;;;;;;6214486;23;1188;-66
2022/08/03 00:59:29;;;;;;;;;;;22.40;65.30;;;;;;6214480;23;773;-66
2022/08/03 01:01:55;;;;;;;;;;;22.40;65.30;;;;;;6215704;23;882;-66
2022/08/03 01:04:21;;;;;;;;;;;22.40;65.30;;;;;;6215800;23;887;-67
2022/08/03 01:06:51;;;;;;;;;;;22.40;65.30;;;;;;6215797;23;1207;-67
2022/08/03 01:09:26;;;;;;;;;;;22.40;65.30;;;;;;6214426;23;1884;-67
2022/08/03 01:11:57;;;;;;;;;;;22.40;65.30;;;;;;6215412;23;910;-66
2022/08/03 01:14:32;;;;;;;;;;;22.40;65.30;;;;;;6214236;23;827;-67
2022/08/03 01:16:58;;;;;;;;;;;22.40;65.30;;;;;;6214307;23;1278;-66
2022/08/03 01:19:30;;;;;;;;;;;22.40;65.30;;;;;;6215245;23;840;-65
2022/08/03 01:22:01;;;;;;;;;;;22.40;65.30;;;;;;6214013;23;826;-66
2022/08/03 01:24:33;;;;;;;;;;;22.40;65.30;;;;;;6215358;23;991;-66
2022/08/03 01:27:01;;;;;;;;;;;22.30;65.30;;;;;;6227659;23;1202;-66
2022/08/03 01:29:30;;;;;;;;;;;22.40;65.40;;;;;;6218571;23;1897;-66
2022/08/03 01:31:57;;;;;;;;;;;22.30;65.30;;;;;;6245297;23;855;-66
2022/08/03 01:34:23;;;;;;;;;;;22.40;65.40;;;;;;6218971;23;860;-65
2022/08/03 01:36:50;;;;;;;;;;;22.40;65.40;;;;;;6218857;23;1223;-65
2022/08/03 01:39:15;;;;;;;;;;;22.30;65.30;;;;;;6245572;23;838;-65
2022/08/03 01:41:46;;;;;;;;;;;22.40;65.40;;;;;;6245313;23;819;-65
2022/08/03 01:44:12;;;;;;;;;;;22.40;65.40;;;;;;6218761;23;761;-66
2022/08/03 01:46:37;;;;;;;;;;;22.40;65.40;;;;;;6245257;23;1301;-65
2022/08/03 01:49:03;;;;;;;;;;;22.30;65.40;;;;;;6193436;23;1946;-64
2022/08/03 01:51:28;;;;;;;;;;;22.40;65.40;;;;;;6218433;23;784;-65
2022/08/03 01:53:54;;;;;;;;;;;22.40;65.40;;;;;;6218760;23;835;-65
2022/08/03 01:56:19;;;;;;;;;;;22.40;65.40;;;;;;6245541;23;1182;-65
2022/08/03 01:58:45;;;;;;;;;;;22.40;65.50;;;;;;6218868;23;1385;-64
2022/08/03 02:01:10;;;;;;;;;;;22.30;65.40;;;;;;6244902;23;915;-65
2022/08/03 02:03:37;;;;;;;;;;;22.40;65.50;;;;;;6218516;23;896;-65
2022/08/03 02:06:02;;;;;;;;;;;22.40;65.50;;;;;;6218638;23;1284;-63
2022/08/03 02:08:28;;;;;;;;;;;22.40;65.50;;;;;;6218233;23;800;-63
2022/08/03 02:10:54;;;;;;;;;;;22.30;65.40;;;;;;6218266;23;1934;-61
2022/08/03 02:13:19;;;;;;;;;;;22.40;65.50;;;;;;6218250;23;918;-64
2022/08/03 02:15:44;;;;;;;;;;;22.40;65.50;;;;;;6217899;23;1273;-65
2022/08/03 02:18:10;;;;;;;;;;;22.40;65.50;;;;;;6218210;23;746;-66
2022/08/03 02:20:37;;;;;;;;;;;22.40;65.50;;;;;;6218409;23;894;-64
2022/08/03 02:23:03;;;;;;;;;;;22.40;65.50;;;;;;6218721;23;828;-64
2022/08/03 02:25:29;;;;;;;;;;;22.40;65.50;;;;;;6218322;23;839;-64
2022/08/03 02:27:55;;;;;;;;;;;22.40;65.50;;;;;;6245114;23;1262;-63
2022/08/03 02:30:20;;;;;;;;;;;22.40;65.50;;;;;;6217482;23;1942;-64
2022/08/03 02:32:50;;;;;;;;;;;22.40;65.60;;;;;;6218238;23;776;-64
2022/08/03 02:35:16;;;;;;;;;;;22.30;65.50;;;;;;6218445;23;910;-63
2022/08/03 02:37:42;;;;;;;;;;;22.40;65.60;;;;;;6218271;23;1184;-64
2022/08/03 02:40:08;;;;;;;;;;;22.40;65.60;;;;;;6218023;23;962;-64
2022/08/03 02:42:34;;;;;;;;;;;22.30;65.50;;;;;;6218356;23;900;-62
2022/08/03 02:45:00;;;;;;;;;;;22.40;65.60;;;;;;6217476;23;895;-64
2022/08/03 02:47:26;;;;;;;;;;;22.30;65.50;;;;;;6218278;23;1299;-64
2022/08/03 02:49:52;;;;;;;;;;;22.30;65.50;;;;;;6244752;23;1924;-64
2022/08/03 02:52:20;;;;;;;;;;;22.40;65.60;;;;;;6218081;23;899;-64
2022/08/03 02:54:46;;;;;;;;;;;22.30;65.60;;;;;;6244987;23;915;-64
2022/08/03 02:57:11;;;;;;;;;;;22.30;65.60;;;;;;6244961;23;1285;-64
2022/08/03 02:59:37;;;;;;;;;;;22.40;65.60;;;;;;6244650;23;1009;-64
2022/08/03 03:02:02;;;;;;;;;;;22.30;65.50;;;;;;6218060;23;693;-63
2022/08/03 03:04:28;;;;;;;;;;;22.40;65.60;;;;;;6218105;23;852;-65
2022/08/03 03:06:53;;;;;;;;;;;22.30;65.60;;;;;;6218021;23;1219;-64
2022/08/03 03:09:19;;;;;;;;;;;22.30;65.60;;;;;;6192813;23;1920;-64
2022/08/03 03:11:44;;;;;;;;;;;22.30;65.60;;;;;;6218103;23;921;-65
2022/08/03 03:14:11;;;;;;;;;;;22.40;65.70;;;;;;6244560;23;994;-64
2022/08/03 03:16:36;;;;;;;;;;;22.30;65.60;;;;;;6244734;23;1263;-64
2022/08/03 03:19:02;;;;;;;;;;;22.40;65.70;;;;;;6218001;23;792;-64
2022/08/03 03:21:27;;;;;;;;;;;22.40;65.70;;;;;;6244126;23;831;-64
2022/08/03 03:23:53;;;;;;;;;;;22.30;65.60;;;;;;6244747;23;820;-64
2022/08/03 03:26:18;;;;;;;;;;;22.40;65.70;;;;;;6244417;23;1271;-63
2022/08/03 03:28:43;;;;;;;;;;;22.30;65.60;;;;;;6244450;23;1897;-64
2022/08/03 03:31:09;;;;;;;;;;;22.40;65.70;;;;;;6244340;23;843;-63
2022/08/03 03:33:35;;;;;;;;;;;22.30;65.60;;;;;;6217920;23;867;-64
2022/08/03 03:36:00;;;;;;;;;;;22.40;65.70;;;;;;6217799;23;1282;-65
2022/08/03 03:38:26;;;;;;;;;;;22.40;65.80;;;;;;6244618;23;926;-64
2022/08/03 03:40:51;;;;;;;;;;;22.40;65.70;;;;;;6244380;23;807;-63
2022/08/03 03:43:19;;;;;;;;;;;22.40;65.70;;;;;;6217470;23;797;-64
2022/08/03 03:45:45;;;;;;;;;;;22.30;65.70;;;;;;6218306;23;1192;-62
2022/08/03 03:48:11;;;;;;;;;;;22.30;65.70;;;;;;6244650;23;827;-64
2022/08/03 03:50:39;;;;;;;;;;;22.30;65.70;;;;;;6244147;23;1926;-64
2022/08/03 03:53:07;;;;;;;;;;;22.30;65.70;;;;;;6244784;23;871;-65
2022/08/03 03:55:32;;;;;;;;;;;22.30;65.70;;;;;;6218184;23;836;-64
2022/08/03 03:57:58;;;;;;;;;;;22.30;65.70;;;;;;6217496;23;1188;-65
2022/08/03 04:00:23;;;;;;;;;;;22.30;65.70;;;;;;6217313;23;958;-63
2022/08/03 04:02:49;;;;;;;;;;;22.40;65.80;;;;;;6244550;23;997;-64
2022/08/03 04:10:58;;;;;;;;;;;22.30;65.80;;;;;;6244287;23;1946;-65
2022/08/03 04:13:26;;;;;;;;;;;22.30;65.80;;;;;;6217558;23;808;-62
2022/08/03 04:15:51;;;;;;;;;;;22.30;65.80;;;;;;6217682;23;1294;-63
2022/08/03 04:18:17;;;;;;;;;;;22.30;65.80;;;;;;6217927;23;924;-64
2022/08/03 04:20:43;;;;;;;;;;;22.30;65.80;;;;;;6217250;23;902;-62
2022/08/03 04:23:09;;;;;;;;;;;22.30;65.80;;;;;;6244515;23;907;-62
2022/08/03 04:25:34;;;;;;;;;;;22.30;65.80;;;;;;6244399;23;907;-64
2022/08/03 04:28:00;;;;;;;;;;;22.30;65.80;;;;;;6217355;23;1191;-63
2022/08/03 04:30:26;;;;;;;;;;;22.30;65.80;;;;;;6217158;23;1940;-62
2022/08/03 04:32:52;;;;;;;;;;;22.40;65.90;;;;;;6246411;23;806;-64
2022/08/03 04:35:17;;;;;;;;;;;22.30;65.80;;;;;;6219412;23;850;-64
2022/08/03 04:37:47;;;;;;;;;;;22.30;65.80;;;;;;6219435;23;1254;-65
2022/08/03 04:40:13;;;;;;;;;;;22.30;65.90;;;;;;6246166;23;864;-65
2022/08/03 04:42:39;;;;;;;;;;;22.30;65.80;;;;;;6246229;23;848;-64
2022/08/03 04:45:05;;;;;;;;;;;22.40;65.90;;;;;;6246173;23;913;-64
2022/08/03 04:47:33;;;;;;;;;;;22.30;65.80;;;;;;6219326;23;1242;-64
2022/08/03 04:49:59;;;;;;;;;;;22.30;65.80;;;;;;6218871;23;1885;-64
2022/08/03 04:52:25;;;;;;;;;;;22.30;65.90;;;;;;6219252;23;832;-64
2022/08/03 04:54:51;;;;;;;;;;;22.30;65.90;;;;;;6246351;23;930;-64
2022/08/03 04:57:17;;;;;;;;;;;22.30;65.90;;;;;;6219189;23;1294;-65
2022/08/03 04:59:42;;;;;;;;;;;22.30;65.90;;;;;;6193963;23;986;-63
2022/08/03 05:02:08;;;;;;;;;;;22.40;66.00;;;;;;6245858;23;797;-66
2022/08/03 05:04:33;;;;;;;;;;;22.30;65.90;;;;;;6245744;23;976;-65
2022/08/03 05:06:59;;;;;;;;;;;22.30;65.90;;;;;;6245943;23;1194;-64
2022/08/03 05:09:24;;;;;;;;;;;22.30;65.90;;;;;;6245944;23;1881;-63
2022/08/03 05:11:50;;;;;;;;;;;22.30;66.00;;;;;;6245640;23;915;-62
2022/08/03 05:14:15;;;;;;;;;;;22.30;66.00;;;;;;6246314;23;845;-64
2022/08/03 05:16:41;;;;;;;;;;;22.30;66.00;;;;;;6245933;23;1190;-64
2022/08/03 05:19:06;;;;;;;;;;;22.30;66.00;;;;;;6245646;23;904;-63
2022/08/03 05:21:31;;;;;;;;;;;22.30;66.00;;;;;;6246290;23;872;-63
2022/08/03 05:23:57;;;;;;;;;;;22.30;66.00;;;;;;6246120;23;1062;-64
2022/08/03 05:26:22;;;;;;;;;;;22.30;66.00;;;;;;6245445;23;1257;-61
2022/08/03 05:28:48;;;;;;;;;;;22.30;66.00;;;;;;6246060;23;1930;-63
2022/08/03 05:31:13;;;;;;;;;;;22.30;66.00;;;;;;6245669;23;820;-64
2022/08/03 05:33:39;;;;;;;;;;;22.30;66.00;;;;;;6245536;23;1018;-59
2022/08/03 05:36:05;;;;;;;;;;;22.30;66.00;;;;;;6245722;23;1258;-63
2022/08/03 05:38:31;;;;;;;;;;;22.30;66.00;;;;;;6245062;23;820;-64
2022/08/03 05:40:56;;;;;;;;;;;22.30;66.10;;;;;;6213539;23;865;-61
2022/08/03 05:43:22;;;;;;;;;;;22.40;66.10;;;;;;6243843;22;1441;-61
2022/08/03 05:45:47;;;;;;;;;;;22.30;66.10;;;;;;6241111;23;1244;-59
2022/08/03 05:50:48;;;;;;;;;;;22.30;66.00;;;;;;6215559;22;1707;-68
2022/08/03 05:53:13;;;;;;;;;;;22.30;66.10;;;;;;6214291;23;1260;-67
2022/08/03 05:55:39;;;;;;;;;;;22.30;66.10;;;;;;6243765;23;779;-67
2022/08/03 05:58:04;;;;;;;;;;;22.30;66.10;;;;;;6242433;23;1215;-68
2022/08/03 06:00:30;;;;;;;;;;;22.30;66.10;;;;;;6243821;23;1290;-67
2022/08/03 06:02:56;;;;;;;;;;;22.30;66.10;;;;;;6243832;23;847;-69
2022/08/03 06:05:21;;;;;;;;;;;22.30;66.10;;;;;;6217473;23;887;-69
2022/08/03 06:07:46;;;;;;;;;;;22.30;66.10;;;;;;6243299;23;1053;-69
2022/08/03 06:10:12;;;;;;;;;;;22.30;66.10;;;;;;6216635;23;1951;-68
2022/08/03 06:12:39;;;;;;;;;;;22.30;66.10;;;;;;6217770;23;764;-71
2022/08/03 06:15:05;;;;;;;;;;;22.30;66.20;;;;;;6244099;23;847;-69
2022/08/03 06:17:31;;;;;;;;;;;22.40;66.30;;;;;;6243817;23;1037;-70
2022/08/03 06:19:56;;;;;;;;;;;22.40;66.30;;;;;;6243492;23;1277;-68
2022/08/03 06:43:05;;;;;;;;;;;22.40;66.70;;;;;;6200144;22;1976;-69
2022/08/03 06:45:30;;;;;;;;;;;22.40;66.70;;;;;;6212245;23;834;-70
2022/08/03 06:47:59;;;;;;;;;;;22.40;66.70;;;;;;6211087;23;839;-71
2022/08/03 06:50:24;;;;;;;;;;;22.40;66.80;;;;;;6211573;23;1869;-72
2022/08/03 06:52:50;;;;;;;;;;;22.40;66.80;;;;;;6213463;23;1194;-73
2022/08/03 06:55:15;;;;;;;;;;;22.40;66.80;;;;;;6212284;23;1061;-71
2022/08/03 06:57:41;;;;;;;;;;;22.40;66.80;;;;;;6212731;23;796;-69
2022/08/03 07:00:08;;;;;;;;;;;22.40;66.90;;;;;;6209648;23;1343;-70
2022/08/03 07:02:33;;;;;;;;;;;22.40;66.90;;;;;;6212792;23;1176;-73
2022/08/03 07:04:59;;;;;;;;;;;22.40;66.90;;;;;;6213777;23;1042;-73
2022/08/03 07:07:24;;;;;;;;;;;22.30;66.90;;;;;;6214266;23;815;-73
2022/08/03 07:09:50;;;;;;;;;;;22.40;67.00;;;;;;6213461;23;1881;-74
2022/08/03 07:12:15;;;;;;;;;;;22.40;66.90;;;;;;6213157;23;1691;-74
2022/08/03 07:14:41;;;;;;;;;;;22.40;66.90;;;;;;6215946;23;1057;-74
2022/08/03 07:17:06;;;;;;;;;;;22.40;67.00;;;;;;6214347;23;1341;-73
2022/08/03 07:19:32;;;;;;;;;;;22.40;67.00;;;;;;6213330;23;831;-73
2022/08/03 07:21:57;;;;;;;;;;;22.40;66.90;;;;;;6215283;23;1160;-74
2022/08/03 07:24:23;;;;;;;;;;;22.40;67.00;;;;;;6214255;23;811;-72
2022/08/03 07:26:48;;;;;;;;;;;22.40;67.00;;;;;;6211668;23;1198;-73
2022/08/03 07:29:14;;;;;;;;;;;22.40;67.00;;;;;;6196930;23;1904;-73
2022/08/03 07:31:39;;;;;;;;;;;22.40;67.00;;;;;;6206733;23;1164;-72
2022/08/03 07:34:05;;;;;;;;;;;22.40;67.00;;;;;;6211482;23;1030;-72
2022/08/03 07:36:31;;;;;;;;;;;22.40;67.10;;;;;;6211896;23;1202;-74
2022/08/03 07:38:57;;;;;;;;;;;22.40;67.10;;;;;;6213336;23;831;-73
2022/08/03 07:41:22;;;;;;;;;;;22.40;67.00;;;;;;6217989;23;1362;-71
2022/08/03 07:43:48;;;;;;;;;;;22.40;67.10;;;;;;6209791;23;900;-69
2022/08/03 07:46:13;;;;;;;;;;;22.40;67.10;;;;;;6209698;23;926;-72
2022/08/03 07:48:39;;;;;;;;;;;22.40;67.10;;;;;;6211290;23;804;-70
2022/08/03 07:51:04;;;;;;;;;;;22.40;67.10;;;;;;6210699;23;1934;-70
2022/08/03 07:53:30;;;;;;;;;;;22.40;67.10;;;;;;6210855;23;1404;-71
2022/08/03 07:55:55;;;;;;;;;;;22.40;67.10;;;;;;6210688;23;1014;-72
2022/08/03 07:58:22;;;;;;;;;;;22.40;67.20;;;;;;6210285;23;796;-71
2022/08/03 08:00:49;;;;;;;;;;;22.40;67.20;;;;;;6212897;23;867;-71
2022/08/03 08:03:15;;;;;;;;;;;22.40;67.10;;;;;;6212860;23;1223;-70
2022/08/03 08:05:40;;;;;;;;;;;22.40;67.20;;;;;;6212574;23;903;-71
2022/08/03 08:08:06;;;;;;;;;;;22.40;67.20;;;;;;6213293;23;863;-70
2022/08/03 08:10:31;;;;;;;;;;;22.40;67.20;;;;;;6187024;23;1901;-71
2022/08/03 08:12:57;;;;;;;;;;;22.40;67.20;;;;;;6213061;23;1231;-71
2022/08/03 08:15:22;;;;;;;;;;;22.40;67.30;;;;;;6214600;23;820;-71
2022/08/03 08:17:49;;;;;;;;;;;22.40;67.20;;;;;;6213111;23;824;-71
2022/08/03 08:20:15;;;;;;;;;;;22.40;67.20;;;;;;6187551;23;872;-72
2022/08/03 08:22:41;;;;;;;;;;;22.40;67.20;;;;;;6188348;23;1183;-71
2022/08/03 08:25:06;;;;;;;;;;;22.40;67.20;;;;;;6214534;23;839;-71
2022/08/03 08:27:32;;;;;;;;;;;22.40;67.20;;;;;;6212424;23;887;-71
2022/08/03 08:29:57;;;;;;;;;;;22.40;67.20;;;;;;6210340;23;1917;-71
2022/08/03 08:32:23;;;;;;;;;;;22.40;67.20;;;;;;6212393;23;1221;-72
2022/08/03 08:34:48;;;;;;;;;;;22.40;67.20;;;;;;6214737;23;1030;-73
2022/08/03 08:37:14;;;;;;;;;;;22.40;67.20;;;;;;6187817;23;1266;-72
2022/08/03 08:39:39;;;;;;;;;;;22.40;67.20;;;;;;6213997;23;1013;-72
2022/08/03 08:42:05;;;;;;;;;;;22.40;68.00;;;;;;6214191;23;1156;-72
2022/08/03 08:44:30;;;;;;;;;;;22.40;67.20;;;;;;6187763;23;1467;-72
2022/08/03 08:46:55;;;;;;;;;;;22.40;67.30;;;;;;6187191;23;1303;-72
2022/08/03 08:49:21;;;;;;;;;;;22.40;67.20;;;;;;6212010;23;1932;-71
2022/08/03 08:51:47;;;;;;;;;;;22.40;67.20;;;;;;6212313;23;1388;-72
2022/08/03 08:54:12;;;;;;;;;;;22.40;67.20;;;;;;6212700;23;1002;-72
2022/08/03 08:56:38;;;;;;;;;;;22.40;67.20;;;;;;6212526;23;764;-72
2022/08/03 08:59:03;;;;;;;;;;;22.40;67.30;;;;;;6213860;23;835;-72
2022/08/03 09:01:29;;;;;;;;;;;22.40;67.20;;;;;;6187795;23;1234;-72
2022/08/03 09:03:54;;;;;;;;;;;22.40;67.20;;;;;;6215190;23;804;-72
2022/08/03 09:06:20;;;;;;;;;;;22.40;67.20;;;;;;6214914;23;768;-72
2022/08/03 09:08:46;;;;;;;;;;;22.40;67.30;;;;;;6212572;23;827;-72
2022/08/03 09:11:11;;;;;;;;;;;22.40;67.20;;;;;;6214633;23;1932;-72
2022/08/03 09:13:37;;;;;;;;;;;22.40;67.30;;;;;;6213081;23;1195;-73
2022/08/03 09:16:10;;;;;;;;;;;22.40;67.30;;;;;;6212606;23;797;-71
2022/08/03 09:18:36;;;;;;;;;;;22.40;67.30;;;;;;6213027;23;852;-70
2022/08/03 09:21:18;;;;;;;;;;;22.40;67.30;;;;;;6213399;23;1026;-71
2022/08/03 09:23:44;;;;;;;;;;;22.40;67.30;;;;;;6213275;23;797;-70
2022/08/03 09:26:10;;;;;;;;;;;22.40;67.30;;;;;;6213596;23;804;-71
2022/08/03 09:28:35;;;;;;;;;;;22.40;67.20;;;;;;6214027;23;796;-71
2022/08/03 09:31:01;;;;;;;;;;;22.40;67.20;;;;;;6211955;23;1927;-70
2022/08/03 09:33:26;;;;;;;;;;;22.40;67.20;;;;;;6214636;23;1156;-71
2022/08/03 09:35:55;;;;;;;;;;;22.40;67.20;;;;;;6213173;23;923;-71
2022/08/03 09:38:26;;;;;;;;;;;22.40;67.20;;;;;;6212078;23;825;-71
2022/08/03 09:40:51;;;;;;;;;;;22.40;67.20;;;;;;6188394;23;834;-72
2022/08/03 09:43:17;;;;;;;;;;;22.40;67.10;;;;;;6212390;23;1337;-72
2022/08/03 09:45:43;;;;;;;;;;;22.40;67.20;;;;;;6212870;23;1228;-72
2022/08/03 09:48:21;;;;;;;;;;;22.40;67.10;;;;;;6214806;23;871;-72
2022/08/03 09:50:47;;;;;;;;;;;22.40;67.20;;;;;;6213996;23;1936;-69
2022/08/03 09:53:12;;;;;;;;;;;22.40;67.20;;;;;;6213922;23;1176;-71
2022/08/03 09:55:38;;;;;;;;;;;22.40;67.20;;;;;;6214743;23;859;-70
2022/08/03 09:58:08;;;;;;;;;;;22.40;67.20;;;;;;6212989;23;1248;-70
2022/08/03 10:00:33;;;;;;;;;;;22.40;67.20;;;;;;6212625;23;835;-69
2022/08/03 10:03:02;;;;;;;;;;;22.40;67.30;;;;;;6211939;23;1358;-70
2022/08/03 10:05:30;;;;;;;;;;;22.40;67.30;;;;;;6212716;23;907;-72
2022/08/03 10:07:56;;;;;;;;;;;22.40;67.20;;;;;;6214227;23;915;-72
2022/08/03 10:10:21;;;;;;;;;;;22.40;67.20;;;;;;6211760;23;3886;-65
2022/08/03 10:12:47;;;;;;;;;;;22.40;67.30;;;;;;6215590;23;887;-65
2022/08/03 10:15:13;;;;;;;;;;;22.40;67.30;;;;;;6188281;23;808;-65
2022/08/03 10:17:38;;;;;;;;;;;22.40;67.30;;;;;;6215572;23;1048;-65
2022/08/03 10:20:05;;;;;;;;;;;22.40;67.30;;;;;;6188036;23;1212;-66
2022/08/03 10:22:34;;;;;;;;;;;22.40;67.30;;;;;;6164219;23;1371;-66
2022/08/03 10:25:05;;;;;;;;;;;22.40;67.30;;;;;;6189031;23;863;-65
2022/08/03 10:27:31;;;;;;;;;;;22.40;67.40;;;;;;6214286;23;1054;-65
2022/08/03 10:29:58;;;;;;;;;;;22.40;67.40;;;;;;6187572;23;1892;-64
2022/08/03 10:32:27;;;;;;;;;;;22.40;67.40;;;;;;6188490;23;820;-64
2022/08/03 10:34:53;;;;;;;;;;;22.40;67.30;;;;;;6189049;23;808;-64
2022/08/03 10:37:18;;;;;;;;;;;22.40;67.40;;;;;;6189405;23;784;-65
2022/08/03 10:39:53;;;;;;;;;;;22.40;67.40;;;;;;6188775;23;1275;-64
2022/08/03 10:42:22;;;;;;;;;;;22.40;67.40;;;;;;6216005;23;803;-64
2022/08/03 10:44:47;;;;;;;;;;;22.40;67.40;;;;;;6189100;23;883;-64
2022/08/03 10:47:13;;;;;;;;;;;22.40;67.40;;;;;;6188849;23;836;-65
2022/08/03 10:49:38;;;;;;;;;;;22.40;67.40;;;;;;6188459;23;1897;-64
2022/08/03 10:52:04;;;;;;;;;;;22.40;67.40;;;;;;6188723;23;847;-65
2022/08/03 10:57:33;;;;;;;;;;;22.40;67.40;;;;;;6188899;23;761;-65
2022/08/03 10:57:41;;;;;;;;;;;22.40;67.40;;;;;;6192718;23;805;-64
2022/08/03 11:00:07;;;;;;;;;;;22.40;67.50;;;;;;6214917;23;1302;-64
2022/08/03 11:03:05;;;;;;;;;;;22.40;67.70;;;;;;6215178;23;844;-65
2022/08/03 11:05:31;;;;;;;;;;;22.50;67.60;;;;;;6133480;23;1312;-64
2022/08/03 11:08:15;;;;;;;;;;;22.50;67.30;;;;;;6214812;23;760;-64
2022/08/03 11:10:41;;;;;;;;;;;22.50;67.20;;;;;;6189698;23;1951;-64
2022/08/03 11:13:06;;;;;;;;;;;22.40;67.20;;;;;;6158548;23;1009;-64
2022/08/03 11:15:33;;;;;;;;;;;22.50;67.20;;;;;;6185407;23;757;-65
2022/08/03 11:18:08;;;;;;;;;;;22.50;67.20;;;;;;6158889;23;819;-66
2022/08/03 11:20:47;;;;;;;;;;;22.50;67.20;;;;;;6158535;23;1319;-64
2022/08/03 11:23:12;;;;;;;;;;;22.50;67.20;;;;;;6158723;23;841;-64
2022/08/03 11:25:57;;;;;;;;;;;22.40;67.20;;;;;;6158386;23;899;-64
2022/08/03 11:28:28;;;;;;;;;;;22.40;67.20;;;;;;6184022;23;1017;-64
2022/08/03 11:30:53;;;;;;;;;;;22.50;67.30;;;;;;6184449;23;1897;-65
2022/08/03 11:33:28;;;;;;;;;;;22.40;67.20;;;;;;6158574;23;855;-64
2022/08/03 11:35:57;;;;;;;;;;;22.50;67.40;;;;;;6184889;23;856;-64
2022/08/03 11:38:23;;;;;;;;;;;22.40;67.20;;;;;;6183957;23;781;-64
2022/08/03 11:40:52;;;;;;;;;;;22.40;67.30;;;;;;6158759;23;1208;-64
2022/08/03 11:43:20;;;;;;;;;;;22.40;67.30;;;;;;6160563;23;797;-64
2022/08/03 11:46:04;;;;;;;;;;;22.40;67.20;;;;;;6186913;23;986;-65
2022/08/03 11:48:33;;;;;;;;;;;22.40;67.30;;;;;;6185947;23;784;-65
2022/08/03 11:50:59;;;;;;;;;;;22.40;67.50;;;;;;6186789;23;1924;-64
2022/08/03 11:53:25;;;;;;;;;;;22.40;67.50;;;;;;6160080;23;787;-64
2022/08/03 11:55:52;;;;;;;;;;;22.40;67.50;;;;;;6187094;23;867;-65
2022/08/03 11:58:17;;;;;;;;;;;22.40;67.50;;;;;;6186177;23;851;-64
2022/08/03 12:00:43;;;;;;;;;;;22.40;67.50;;;;;;6160315;23;1220;-64
2022/08/03 12:03:10;;;;;;;;;;;22.40;67.60;;;;;;6186563;23;792;-63
2022/08/03 12:05:36;;;;;;;;;;;22.40;67.60;;;;;;6186571;23;1176;-64
2022/08/03 12:08:01;;;;;;;;;;;22.40;67.50;;;;;;6186583;23;831;-64
2022/08/03 12:10:27;;;;;;;;;;;22.40;67.50;;;;;;6181157;23;1897;-64
2022/08/03 12:12:56;;;;;;;;;;;22.40;67.60;;;;;;6216624;23;853;-64
2022/08/03 12:15:29;;;;;;;;;;;22.40;67.50;;;;;;6189930;23;811;-64
2022/08/03 12:17:54;;;;;;;;;;;22.40;67.60;;;;;;6190275;23;844;-65
2022/08/03 12:20:21;;;;;;;;;;;22.40;67.50;;;;;;6188962;23;1192;-65
2022/08/03 12:22:46;;;;;;;;;;;22.40;67.60;;;;;;6216145;23;807;-64
2022/08/03 12:25:19;;;;;;;;;;;22.40;67.50;;;;;;6189630;23;1180;-64
2022/08/03 12:27:44;;;;;;;;;;;22.40;67.60;;;;;;6190428;23;1002;-64
2022/08/03 12:30:10;;;;;;;;;;;22.40;67.60;;;;;;6215600;23;1923;-65
2022/08/03 12:32:36;;;;;;;;;;;22.40;67.50;;;;;;6216428;23;847;-64
2022/08/03 12:35:03;;;;;;;;;;;22.40;67.60;;;;;;6216149;23;926;-64
2022/08/03 12:37:29;;;;;;;;;;;22.40;67.60;;;;;;6190489;23;829;-64
2022/08/03 12:39:55;;;;;;;;;;;22.40;67.60;;;;;;6215691;23;1262;-65
2022/08/03 12:42:20;;;;;;;;;;;22.40;67.70;;;;;;6216424;23;999;-65
2022/08/03 12:44:47;;;;;;;;;;;22.40;67.90;;;;;;6215920;23;756;-64
2022/08/03 12:47:13;;;;;;;;;;;22.40;67.70;;;;;;6216649;23;844;-64
2022/08/03 12:49:45;;;;;;;;;;;22.50;68.00;;;;;;6215077;23;1920;-64
2022/08/03 12:52:10;;;;;;;;;;;22.40;67.80;;;;;;6215465;23;691;-64
2022/08/03 12:54:36;;;;;;;;;;;22.40;67.70;;;;;;6216282;23;904;-64
2022/08/03 12:57:02;;;;;;;;;;;22.50;67.70;;;;;;6189719;23;1058;-64
2022/08/03 12:59:32;;;;;;;;;;;22.50;67.70;;;;;;6188730;23;1290;-64
2022/08/03 13:01:57;;;;;;;;;;;22.50;67.80;;;;;;6216069;23;800;-65
2022/08/03 13:04:30;;;;;;;;;;;22.50;67.80;;;;;;6216252;23;817;-64
2022/08/03 13:06:58;;;;;;;;;;;22.50;67.80;;;;;;6216267;23;852;-64
2022/08/03 13:09:27;;;;;;;;;;;22.50;67.80;;;;;;6206317;23;1928;-64
2022/08/03 13:12:05;;;;;;;;;;;22.40;67.80;;;;;;6186585;23;881;-64
2022/08/03 13:14:31;;;;;;;;;;;22.40;67.70;;;;;;6185676;23;788;-65
2022/08/03 13:16:56;;;;;;;;;;;22.40;67.80;;;;;;6186106;23;1046;-64
2022/08/03 13:19:22;;;;;;;;;;;22.50;67.80;;;;;;6158382;23;1224;-65
2022/08/03 13:21:48;;;;;;;;;;;22.40;67.80;;;;;;6186004;23;872;-65
2022/08/03 13:24:14;;;;;;;;;;;22.40;67.80;;;;;;6185648;23;840;-65
2022/08/03 13:26:39;;;;;;;;;;;22.50;67.80;;;;;;6186162;23;816;-65
2022/08/03 13:29:05;;;;;;;;;;;22.50;67.80;;;;;;6184933;23;1889;-65
2022/08/03 13:31:30;;;;;;;;;;;22.40;67.80;;;;;;6185842;23;867;-65
2022/08/03 13:33:56;;;;;;;;;;;22.40;67.80;;;;;;6159145;23;928;-65
2022/08/03 13:36:21;;;;;;;;;;;22.40;67.80;;;;;;6174881;23;868;-65
2022/08/03 13:38:47;;;;;;;;;;;22.50;67.80;;;;;;6183741;23;1208;-65
2022/08/03 13:41:12;;;;;;;;;;;22.50;67.80;;;;;;6185557;23;808;-65
2022/08/03 13:43:37;;;;;;;;;;;22.50;67.80;;;;;;6158020;23;880;-66
2022/08/03 13:46:03;;;;;;;;;;;22.40;67.70;;;;;;6184973;23;761;-64
2022/08/03 13:48:28;;;;;;;;;;;22.40;67.80;;;;;;6183149;23;842;-66
2022/08/03 13:50:54;;;;;;;;;;;22.40;67.80;;;;;;6184297;23;1889;-65
2022/08/03 13:53:19;;;;;;;;;;;22.50;67.80;;;;;;6184019;23;1029;-65
2022/08/03 13:55:45;;;;;;;;;;;22.50;67.70;;;;;;6184409;23;919;-65
2022/08/03 13:58:11;;;;;;;;;;;22.40;67.80;;;;;;6184607;23;1064;-65
2022/08/03 14:00:37;;;;;;;;;;;22.50;67.80;;;;;;6184032;23;1283;-65
2022/08/03 14:03:02;;;;;;;;;;;22.50;67.80;;;;;;6157910;23;836;-63
2022/08/03 14:05:29;;;;;;;;;;;22.40;67.70;;;;;;6158239;23;761;-63
2022/08/03 14:07:54;;;;;;;;;;;22.40;67.70;;;;;;6185252;23;824;-66
2022/08/03 14:10:20;;;;;;;;;;;22.40;67.80;;;;;;6172441;23;1904;-65
2022/08/03 14:12:45;;;;;;;;;;;22.50;67.80;;;;;;6185065;23;813;-65
2022/08/03 14:15:11;;;;;;;;;;;22.50;67.80;;;;;;6176080;23;891;-64
2022/08/03 14:17:37;;;;;;;;;;;22.50;68.00;;;;;;6178946;23;792;-63
2022/08/03 14:20:04;;;;;;;;;;;22.50;67.80;;;;;;6182626;23;1298;-64
2022/08/03 14:22:30;;;;;;;;;;;22.50;67.80;;;;;;6184034;23;788;-64
2022/08/03 14:24:56;;;;;;;;;;;22.50;67.70;;;;;;6183815;23;820;-64
2022/08/03 14:27:22;;;;;;;;;;;22.50;67.70;;;;;;6184625;23;733;-64
2022/08/03 14:29:47;;;;;;;;;;;22.40;67.70;;;;;;6181855;23;1924;-64
2022/08/03 14:32:13;;;;;;;;;;;22.50;67.80;;;;;;6182940;23;1050;-64
2022/08/03 14:34:38;;;;;;;;;;;22.50;67.80;;;;;;6183695;23;1018;-64
2022/08/03 14:37:03;;;;;;;;;;;22.50;67.80;;;;;;6184191;23;683;-63
2022/08/03 14:39:29;;;;;;;;;;;22.50;67.70;;;;;;6181679;23;1477;-64
2022/08/03 14:41:54;;;;;;;;;;;22.50;67.80;;;;;;6185021;23;904;-65
2022/08/03 14:44:20;;;;;;;;;;;22.50;67.70;;;;;;6184426;23;1017;-63
2022/08/03 14:46:45;;;;;;;;;;;22.50;67.80;;;;;;6183847;23;1026;-64
2022/08/03 14:49:11;;;;;;;;;;;22.50;67.70;;;;;;6183288;23;1936;-64
2022/08/03 14:51:36;;;;;;;;;;;22.50;67.80;;;;;;6184084;23;809;-64
2022/08/03 14:54:01;;;;;;;;;;;22.50;67.80;;;;;;6184178;23;801;-64
2022/08/03 14:56:27;;;;;;;;;;;22.40;67.70;;;;;;6185202;23;1061;-64
2022/08/03 14:58:52;;;;;;;;;;;22.50;67.70;;;;;;6184034;23;1220;-64
2022/08/03 15:01:18;;;;;;;;;;;22.50;67.80;;;;;;6184520;23;1053;-64